Ashton, SD

10:00 PM CST on February 05, 2016 (GMT -0600)
Aberdeen Regional | | Change Station
CLOSE
Current Station
Airport
Location: Aberdeen,
Elevation: 1299 ft
Nearby Weather Stations
Active Advisory: High Wind Watch Active Notice: Public Information Statement

Elev 1299 ft 45.44 °N, 98.41 °W | Updated 7 minutes ago

Clear
Clear
21 °F
Feels Like 13 °F
N
6
Wind Variable Wind from SW

Today
High -- | Low -- °F
--% Chance of Precip.
Yesterday
High -- | Low -- °F
Precip. -- in
Pressure 30.21 in
Visibility 10.0 miles
Clouds Clear
Windchill 13 °F
Dew Point 16 °F
Humidity 81%
Rainfall 0.01 in
Snow Depth Not available.
7:49 AM 5:47 PM
Waning Crescent, 8% visible
METAR KABR 060353Z AUTO 22005KT 10SM CLR M06/M09 A3015 RMK AO2 SLP230 T10611089
Pressure 30.21 in
Visibility 10.0 miles
Clouds Clear
Windchill 13 °F
Dew Point 16 °F
Humidity 81%
Rainfall 0.01 in
Snow Depth Not available.
7:49 AM 5:47 PM
Waning Crescent, 8% visible
METAR KABR 060353Z AUTO 22005KT 10SM CLR M06/M09 A3015 RMK AO2 SLP230 T10611089

10-Day Weather Forecast

Almanac

Astronomy

Feb. 05, 2016 Rise Set
Actual Time
Civil Twilight
Nautical Twilight
Astronomical Twilight
Moon
Length of Visible Light
Length of Day
Tomorrow will be .
, % of the Moon is Illuminated

Today's Extremes

State Highs State Lows

Community

WunderPhotos

Upload Photos

1,890,922 photos uploaded!

WunderBlog® & News

Nearby

Air Quality

  Air Quality AQ Index Pollutant
Not available.

Snow Depth

Station Depth Elevation

Earthquake Activity

City Distance Mag. Time & Date
Minimum magnitude displayed is 2.5.

Coastal Water Temperatures

Place Temperature

Stations

Nearby Weather Stations

Station Location Temp. Windchill Dew Point Humidity Wind Precip. Elev Updated Type
                   

Watches & Warnings

High Wind Watch
Issued: 3:01 PM CST Feb. 5, 2016 – National Weather Service

... High wind watch in effect from Sunday morning through Sunday
evening...

The National Weather Service in Aberdeen has issued a high wind
watch... which is in effect from Sunday morning through Sunday
evening.

* Winds... northwest 30 to 45 mph with gusts up to 60 mph
possible.

* Impacts... high profile vehicles will likely be affected.
Strong winds can create flying debris. Gusts over 60 mph can
cause property damage.

Precautionary/preparedness actions...

A high wind watch means there is the potential for a hazardous
high wind event. Sustained winds of at least 40 mph... or gusts of
58 mph or stronger may occur. Continue to monitor the latest
forecasts.